Terminal Aerodrome Forecast
Issued by NWS

Home | Current Version | Previous Version | Text Only | Print | Product List | Glossary On
Versions: 1 2 3 4 5 6 7 8 9 10 11 12
000
FTUS45 KRIW 171724
TAFPNA
TAF
KPNA 171724Z 1718/1818 00000KT P6SM SKC
     FM171900 29014G20KT P6SM SCT110
     FM180100 30008KT P6SM SKC
      AMD LTD TO CLD VIS AND WIND=

USA.gov is the U.S. government's official web portal to all federal, state and local government web resources and services.